createdAt,value
2023-05-02T00:03:57.222Z,20.30
2023-05-02T00:07:57.684Z,18.77
2023-05-02T00:11:57.895Z,18.47
2023-05-02T00:16:00.682Z,17.97
2023-05-02T00:20:01.306Z,17.27
2023-05-02T00:24:01.864Z,17.23
2023-05-02T00:28:02.106Z,20.57
2023-05-02T00:32:04.860Z,21.20
2023-05-02T00:36:05.335Z,22.40
2023-05-02T00:40:06.157Z,20.80
2023-05-02T00:44:06.836Z,19.97
2023-05-02T00:48:10.867Z,19.03
2023-05-02T00:52:12.083Z,19.47
2023-05-02T00:56:12.552Z,18.37
2023-05-02T01:00:15.533Z,22.87
2023-05-02T01:04:38.863Z,19.60
2023-05-02T01:08:54.006Z,20.83
2023-05-02T01:13:04.142Z,19.83
2023-05-02T01:17:10.671Z,18.53
2023-05-02T01:21:15.667Z,16.83
2023-05-02T01:25:30.025Z,18.17
2023-05-02T01:29:34.430Z,16.97
2023-05-02T01:33:38.166Z,19.50
2023-05-02T01:37:42.390Z,19.40
2023-05-02T01:41:44.623Z,20.80
2023-05-02T01:45:51.736Z,20.47
2023-05-02T01:49:52.647Z,17.60
2023-05-02T01:53:54.794Z,17.43
2023-05-02T01:57:58.294Z,17.53
2023-05-02T02:02:04.290Z,20.10
2023-05-02T02:06:06.418Z,21.30
2023-05-02T02:10:07.217Z,19.63
2023-05-02T02:14:15.593Z,19.77
2023-05-02T02:18:25.448Z,20.50
2023-05-02T02:22:30.743Z,17.17
2023-05-02T02:26:30.972Z,17.07
2023-05-02T02:30:31.615Z,17.00
2023-05-02T02:34:34.709Z,17.93
2023-05-02T02:38:45.126Z,19.23
2023-05-02T02:42:58.438Z,17.70
2023-05-02T02:47:09.887Z,18.03
2023-05-02T02:51:22.561Z,17.93
2023-05-02T02:55:37.560Z,18.77
2023-05-02T02:59:45.597Z,18.40
2023-05-02T03:03:48.419Z,20.03
2023-05-02T03:07:51.627Z,18.90
2023-05-02T03:11:53.967Z,16.47
2023-05-02T03:16:39.057Z,17.77
2023-05-02T03:20:43.028Z,15.93
2023-05-02T03:24:46.538Z,19.67
2023-05-02T03:28:50.527Z,17.47
2023-05-02T03:32:56.139Z,16.43
2023-05-02T03:36:56.618Z,17.30
2023-05-02T03:41:00.499Z,16.63
2023-05-02T03:45:00.847Z,19.57
2023-05-02T03:49:01.893Z,22.13
2023-05-02T03:53:02.259Z,21.63
2023-05-02T03:57:15.499Z,21.33
2023-05-02T04:01:20.355Z,28.17
2023-05-02T04:05:23.388Z,25.37
2023-05-02T04:09:25.633Z,28.27
2023-05-02T04:13:33.781Z,25.67
2023-05-02T04:17:35.377Z,27.03
2023-05-02T04:21:35.921Z,24.70
2023-05-02T04:25:36.981Z,20.23
2023-05-02T04:29:40.555Z,23.43
2023-05-02T04:33:42.031Z,21.17
2023-05-02T04:37:42.860Z,20.40
2023-05-02T04:41:43.710Z,20.90
2023-05-02T04:45:46.605Z,21.43
2023-05-02T04:49:54.300Z,22.97
2023-05-02T04:53:54.547Z,21.63
2023-05-02T04:57:55.193Z,27.83
2023-05-02T05:01:58.336Z,29.70
2023-05-02T05:05:59.165Z,21.43
2023-05-02T05:10:00.271Z,27.80
2023-05-02T05:14:05.061Z,17.80
2023-05-02T05:18:10.897Z,20.77
2023-05-02T05:22:12.422Z,22.13
2023-05-02T05:26:13.821Z,19.70
2023-05-02T05:30:15.983Z,21.57
2023-05-02T05:34:19.887Z,18.13
2023-05-02T05:38:21.305Z,20.33
2023-05-02T05:42:22.491Z,17.90
2023-05-02T05:46:27.322Z,15.30
2023-05-02T05:50:31.074Z,17.20
2023-05-02T05:54:31.549Z,19.93
2023-05-02T05:58:33.518Z,16.67
2023-05-02T06:02:33.896Z,14.60
2023-05-02T06:06:37.770Z,16.07
2023-05-02T06:10:38.152Z,14.23
2023-05-02T06:14:38.876Z,15.33
2023-05-02T06:18:39.464Z,14.07
2023-05-02T06:22:43.377Z,13.77
2023-05-02T06:26:43.582Z,15.33
2023-05-02T06:30:43.764Z,15.27
2023-05-02T06:34:44.060Z,15.93
2023-05-02T06:38:46.933Z,13.67
2023-05-02T06:42:47.324Z,12.27
2023-05-02T06:46:47.620Z,11.23
2023-05-02T06:50:47.817Z,11.67
2023-05-02T06:54:50.902Z,11.10
2023-05-02T06:58:51.245Z,9.73
2023-05-02T07:02:52.665Z,12.07
2023-05-02T07:06:53.534Z,11.77
2023-05-02T07:10:56.355Z,11.95
2023-05-02T07:14:56.538Z,13.27
2023-05-02T07:18:56.777Z,12.00
2023-05-02T07:22:57.282Z,12.48
2023-05-02T07:27:00.124Z,12.45
2023-05-02T07:31:00.570Z,13.70
2023-05-02T07:35:00.985Z,12.80
2023-05-02T07:39:01.121Z,12.98
2023-05-02T07:43:04.532Z,13.73
2023-05-02T07:47:04.678Z,10.38
2023-05-02T07:51:14.433Z,13.15
2023-05-02T07:55:15.375Z,12.20
2023-05-02T07:59:18.360Z,10.35
2023-05-02T08:03:18.710Z,13.27
2023-05-02T08:07:19.067Z,13.57
2023-05-02T08:11:21.917Z,16.67
2023-05-02T08:15:25.527Z,15.27
2023-05-02T08:19:25.951Z,16.53
2023-05-02T08:23:26.107Z,21.23
2023-05-02T08:27:26.325Z,17.63
2023-05-02T08:31:29.213Z,19.70
2023-05-02T08:35:31.558Z,20.00
2023-05-02T08:39:35.720Z,18.80
2023-05-02T08:43:36.417Z,18.70
2023-05-02T08:47:41.389Z,16.10
2023-05-02T08:51:43.443Z,18.13
2023-05-02T08:55:45.301Z,18.83
2023-05-02T08:59:46.367Z,15.70
2023-05-02T09:03:53.375Z,17.60
2023-05-02T09:07:55.308Z,18.83
2023-05-02T09:11:56.192Z,16.70
2023-05-02T09:16:02.399Z,17.00
2023-05-02T09:20:09.922Z,21.43
2023-05-02T09:24:19.891Z,17.83
2023-05-02T09:28:20.147Z,18.20
2023-05-02T09:32:20.419Z,15.67
2023-05-02T09:36:24.934Z,13.20
2023-05-02T09:40:28.197Z,15.93
2023-05-02T09:44:39.727Z,13.18
2023-05-02T09:48:57.551Z,15.05
2023-05-02T09:53:08.524Z,10.30
2023-05-02T09:57:11.220Z,9.18
2023-05-02T10:01:17.863Z,12.35
2023-05-02T10:05:18.839Z,9.77
2023-05-02T10:09:24.309Z,9.43
2023-05-02T10:13:27.617Z,11.40
2023-05-02T10:17:37.204Z,11.55
2023-05-02T10:21:39.916Z,10.95
2023-05-02T10:25:43.336Z,9.40
2023-05-02T10:29:45.374Z,8.73
2023-05-02T10:33:46.161Z,8.80
2023-05-02T10:37:48.724Z,8.32
2023-05-02T10:41:51.868Z,11.27
2023-05-02T10:45:52.577Z,9.43
2023-05-02T10:49:58.896Z,10.90
2023-05-02T10:54:22.542Z,9.40
2023-05-02T10:58:28.362Z,9.10
2023-05-02T11:02:51.922Z,9.27
2023-05-02T11:07:22.653Z,9.23
2023-05-02T11:11:50.934Z,11.70
2023-05-02T11:16:03.029Z,8.02
2023-05-02T11:20:28.378Z,8.88
2023-05-02T11:24:42.504Z,8.02
2023-05-02T11:28:48.494Z,7.72
2023-05-02T11:33:20.472Z,7.70
2023-05-02T11:37:21.373Z,9.68
2023-05-02T11:41:21.609Z,7.72
2023-05-02T11:45:22.683Z,8.48
2023-05-02T11:49:25.886Z,6.53
2023-05-02T11:53:29.793Z,7.72
2023-05-02T11:57:30.340Z,7.07
2023-05-02T12:01:30.984Z,7.95
2023-05-02T12:05:34.027Z,7.32
2023-05-02T12:09:34.247Z,5.57
2023-05-02T12:13:34.390Z,6.90
2023-05-02T12:17:35.324Z,6.57
2023-05-02T12:21:38.412Z,5.72
2023-05-02T12:25:42.177Z,7.00
2023-05-02T12:29:48.573Z,6.03
2023-05-02T12:33:52.655Z,6.80
2023-05-02T12:37:56.432Z,5.95
2023-05-02T12:41:56.795Z,6.75
2023-05-02T12:46:15.209Z,6.43
2023-05-02T12:50:15.470Z,7.15
2023-05-02T12:54:26.892Z,6.10
2023-05-02T12:58:28.749Z,5.28
2023-05-02T13:02:29.075Z,5.80
2023-05-02T13:06:29.367Z,5.72
2023-05-02T13:10:32.940Z,4.53
2023-05-02T13:14:33.253Z,5.30
2023-05-02T13:18:33.629Z,6.60
2023-05-02T13:22:34.066Z,5.38
2023-05-02T13:26:36.968Z,4.70
2023-05-02T13:30:37.313Z,3.95
2023-05-02T13:34:37.559Z,7.88
2023-05-02T13:38:38.272Z,5.25
2023-05-02T13:42:41.239Z,6.97
2023-05-02T13:46:41.590Z,7.70
2023-05-02T13:50:41.945Z,13.32
2023-05-02T13:54:42.880Z,10.23
2023-05-02T13:58:45.775Z,10.90
2023-05-02T14:02:48.467Z,7.77
2023-05-02T14:06:48.791Z,4.93
2023-05-02T14:10:49.135Z,6.83
2023-05-02T14:14:52.114Z,3.70
2023-05-02T14:18:52.338Z,4.30
2023-05-02T14:22:52.633Z,5.37
2023-05-02T14:26:53.074Z,5.13
2023-05-02T14:30:55.983Z,6.27
2023-05-02T14:34:56.211Z,4.57
2023-05-02T14:38:56.550Z,5.60
2023-05-02T14:42:56.874Z,5.63
2023-05-02T14:47:00.673Z,3.63
2023-05-02T14:51:01.463Z,3.80
2023-05-02T14:55:03.364Z,3.88
2023-05-02T14:59:04.005Z,3.67
2023-05-02T15:03:08.014Z,2.15
2023-05-02T15:07:08.548Z,3.28
2023-05-02T15:11:09.471Z,3.53
2023-05-02T15:15:12.230Z,2.75
2023-05-02T15:19:15.173Z,5.72
2023-05-02T15:23:15.481Z,7.57
2023-05-02T15:27:15.792Z,3.95
2023-05-02T15:31:16.193Z,5.20
2023-05-02T15:35:22.384Z,3.58
2023-05-02T15:39:26.669Z,4.20
2023-05-02T15:43:29.552Z,5.43
2023-05-02T15:47:32.089Z,2.50
2023-05-02T15:51:35.769Z,2.85
2023-05-02T15:55:36.689Z,2.17
2023-05-02T15:59:37.075Z,2.40
2023-05-02T16:03:37.717Z,4.82
2023-05-02T16:07:41.053Z,3.88
2023-05-02T16:11:41.422Z,3.33
2023-05-02T16:15:42.512Z,4.28
2023-05-02T16:19:43.163Z,5.25
2023-05-02T16:23:46.142Z,5.20
2023-05-02T16:27:46.715Z,4.50
2023-05-02T16:31:47.516Z,3.75
2023-05-02T16:35:47.869Z,4.65
2023-05-02T16:39:50.783Z,5.57
2023-05-02T16:43:52.566Z,4.25
2023-05-02T16:47:52.890Z,4.18
2023-05-02T16:51:55.006Z,5.40
2023-05-02T16:55:59.933Z,4.35
2023-05-02T17:00:00.815Z,4.68
2023-05-02T17:04:02.170Z,4.40
2023-05-02T17:08:02.909Z,4.15
2023-05-02T17:12:06.048Z,4.43
2023-05-02T17:16:08.428Z,2.92
2023-05-02T17:20:11.286Z,3.28
2023-05-02T17:24:12.405Z,5.22
2023-05-02T17:28:15.596Z,3.90
2023-05-02T17:32:16.070Z,4.65
2023-05-02T17:36:16.596Z,3.90
2023-05-02T17:40:17.246Z,4.93
2023-05-02T17:44:20.332Z,5.00
2023-05-02T17:48:21.313Z,6.57
2023-05-02T17:52:21.956Z,7.07
2023-05-02T17:56:22.762Z,6.20
2023-05-02T18:00:26.598Z,8.30
2023-05-02T18:04:27.404Z,7.72
2023-05-02T18:08:27.915Z,5.60
2023-05-02T18:12:28.395Z,8.85
2023-05-02T18:16:32.177Z,7.20
2023-05-02T18:20:32.623Z,6.90
2023-05-02T18:24:34.569Z,7.80
2023-05-02T18:28:37.085Z,7.88
2023-05-02T18:32:40.574Z,7.05
2023-05-02T18:36:41.297Z,7.93
2023-05-02T18:40:41.949Z,6.40
2023-05-02T18:44:42.499Z,9.70
2023-05-02T18:48:46.278Z,7.33
2023-05-02T18:52:46.718Z,9.67
2023-05-02T18:56:50.081Z,10.67
2023-05-02T19:00:50.680Z,7.43
2023-05-02T19:04:53.946Z,8.30
2023-05-02T19:08:54.402Z,8.17
2023-05-02T19:12:57.969Z,9.60
2023-05-02T19:17:15.384Z,8.93
2023-05-02T19:21:29.819Z,7.90
2023-05-02T19:25:33.237Z,7.37
2023-05-02T19:29:34.098Z,7.77
2023-05-02T19:33:42.141Z,9.47
2023-05-02T19:37:51.602Z,8.73
2023-05-02T19:41:55.314Z,11.37
2023-05-02T19:45:59.149Z,8.27
2023-05-02T19:49:59.659Z,9.43
2023-05-02T19:54:03.002Z,8.10
2023-05-02T19:58:04.576Z,8.30
2023-05-02T20:02:05.116Z,7.80
2023-05-02T20:06:06.231Z,7.93
2023-05-02T20:10:12.407Z,9.30
2023-05-02T20:14:12.696Z,9.00
2023-05-02T20:18:13.074Z,10.47
2023-05-02T20:22:13.468Z,8.50
2023-05-02T20:26:18.081Z,8.17
2023-05-02T20:30:18.478Z,15.63
2023-05-02T20:34:19.002Z,66.67
2023-05-02T20:38:20.652Z,15.80
2023-05-02T20:42:26.512Z,8.50
2023-05-02T20:46:26.928Z,9.70
2023-05-02T20:50:27.345Z,7.43
2023-05-02T20:54:27.936Z,9.60
2023-05-02T20:58:31.201Z,11.63
2023-05-02T21:02:31.769Z,6.93
2023-05-02T21:06:32.889Z,6.30
2023-05-02T21:10:33.506Z,6.87
2023-05-02T21:14:37.012Z,4.17
2023-05-02T21:18:37.422Z,5.20
2023-05-02T21:22:38.375Z,6.63
2023-05-02T21:26:39.373Z,4.90
2023-05-02T21:30:42.579Z,5.43
2023-05-02T21:34:43.474Z,7.20
2023-05-02T21:38:45.585Z,6.17
2023-05-02T21:42:46.373Z,8.27
2023-05-02T21:46:50.726Z,5.10
2023-05-02T21:50:51.084Z,5.70
2023-05-02T21:54:52.691Z,6.27
2023-05-02T21:58:52.828Z,5.13
2023-05-02T22:02:55.717Z,4.33
2023-05-02T22:06:56.224Z,5.37
2023-05-02T22:10:56.501Z,9.00
2023-05-02T22:14:56.697Z,6.30
2023-05-02T22:19:00.422Z,6.30
2023-05-02T22:23:00.697Z,4.87
2023-05-02T22:27:01.052Z,7.27
2023-05-02T22:31:01.303Z,6.40
2023-05-02T22:35:04.421Z,8.07
2023-05-02T22:39:05.356Z,5.43
2023-05-02T22:43:05.739Z,5.23
2023-05-02T22:47:06.785Z,6.83
2023-05-02T22:51:09.877Z,12.17
2023-05-02T22:55:12.127Z,6.63
2023-05-02T22:59:12.824Z,6.17
2023-05-02T23:03:13.374Z,6.60
2023-05-02T23:07:16.267Z,6.37
2023-05-02T23:11:16.930Z,7.97
2023-05-02T23:15:17.186Z,6.93
2023-05-02T23:19:18.295Z,8.77
2023-05-02T23:23:21.190Z,8.27
2023-05-02T23:27:21.518Z,9.50
2023-05-02T23:31:22.449Z,8.93
2023-05-02T23:35:23.342Z,8.60
2023-05-02T23:39:26.744Z,8.00
2023-05-02T23:43:27.471Z,7.87
2023-05-02T23:47:28.381Z,9.00
2023-05-02T23:51:29.416Z,10.67
2023-05-02T23:55:32.113Z,8.87
2023-05-02T23:59:32.285Z,12.57
